createdAt,value
2023-05-14T00:01:12.850Z,5.00
2023-05-14T00:06:10.221Z,5.03
2023-05-14T00:11:08.409Z,4.45
2023-05-14T00:16:05.686Z,4.80
2023-05-14T00:21:03.373Z,4.95
2023-05-14T00:26:00.229Z,4.60
2023-05-14T00:30:57.286Z,5.60
2023-05-14T00:35:54.122Z,5.18
2023-05-14T00:40:51.591Z,5.78
2023-05-14T00:45:50.506Z,4.78
2023-05-14T00:50:49.328Z,4.97
2023-05-14T00:55:48.797Z,5.25
2023-05-14T01:00:46.380Z,5.32
2023-05-14T01:05:53.065Z,4.97
2023-05-14T01:10:52.999Z,5.68
2023-05-14T01:15:51.009Z,5.18
2023-05-14T01:20:50.907Z,6.10
2023-05-14T01:25:48.433Z,5.15
2023-05-14T01:30:49.785Z,5.18
2023-05-14T01:35:47.036Z,5.00
2023-05-14T01:40:45.166Z,5.35
2023-05-14T01:45:43.438Z,4.65
2023-05-14T01:50:40.353Z,6.03
2023-05-14T01:55:37.241Z,5.50
2023-05-14T02:00:34.088Z,5.60
2023-05-14T02:05:31.564Z,5.40
2023-05-14T02:10:28.675Z,5.13
2023-05-14T02:15:25.493Z,5.70
2023-05-14T02:20:22.650Z,5.40
2023-05-14T02:25:20.380Z,5.07
2023-05-14T02:30:17.885Z,5.75
2023-05-14T02:35:14.763Z,5.03
2023-05-14T02:40:12.038Z,5.15
2023-05-14T02:45:10.337Z,5.07
2023-05-14T02:50:08.256Z,4.57
2023-05-14T02:55:06.135Z,5.32
2023-05-14T03:00:03.789Z,4.55
2023-05-14T03:05:01.855Z,5.15
2023-05-14T03:09:59.726Z,5.35
2023-05-14T03:14:56.507Z,5.38
2023-05-14T03:19:53.658Z,5.47
2023-05-14T03:24:51.174Z,5.22
2023-05-14T03:29:47.907Z,5.22
2023-05-14T03:34:44.698Z,5.85
2023-05-14T03:39:41.956Z,5.45
2023-05-14T03:44:40.107Z,4.85
2023-05-14T03:49:38.028Z,4.97
2023-05-14T03:54:37.870Z,4.97
2023-05-14T03:59:34.798Z,5.50
2023-05-14T04:04:32.413Z,6.57
2023-05-14T04:09:29.776Z,6.53
2023-05-14T04:14:27.674Z,6.30
2023-05-14T04:19:24.487Z,6.15
2023-05-14T04:24:22.154Z,7.03
2023-05-14T04:29:19.167Z,7.20
2023-05-14T04:34:16.072Z,6.50
2023-05-14T04:39:12.927Z,6.95
2023-05-14T04:44:12.117Z,6.00
2023-05-14T04:49:09.083Z,6.22
2023-05-14T04:54:06.047Z,7.03
2023-05-14T04:59:02.902Z,6.65
2023-05-14T05:04:00.509Z,6.45
2023-05-14T05:08:57.351Z,6.43
2023-05-14T05:13:54.098Z,5.93
2023-05-14T05:18:50.995Z,5.25
2023-05-14T05:23:48.434Z,4.78
2023-05-14T05:28:48.425Z,5.18
2023-05-14T05:33:57.718Z,4.55
2023-05-14T05:38:55.662Z,4.88
2023-05-14T05:44:00.645Z,4.28
2023-05-14T05:49:05.352Z,4.10
2023-05-14T05:54:06.113Z,3.47
2023-05-14T05:59:06.172Z,4.10
2023-05-14T06:04:04.968Z,4.18
2023-05-14T06:09:02.923Z,4.18
2023-05-14T06:14:08.332Z,5.00
2023-05-14T06:19:15.487Z,3.78
2023-05-14T06:24:21.068Z,3.20
2023-05-14T06:29:26.053Z,3.13
2023-05-14T06:34:22.899Z,3.72
2023-05-14T06:39:31.191Z,2.40
2023-05-14T06:44:30.317Z,2.80
2023-05-14T06:49:33.848Z,4.40
2023-05-14T06:54:31.519Z,1.88
2023-05-14T06:59:30.268Z,1.88
2023-05-14T07:04:27.080Z,1.92
2023-05-14T07:09:33.774Z,2.15
2023-05-14T07:14:31.472Z,2.08
2023-05-14T07:19:29.574Z,2.25
2023-05-14T07:24:26.331Z,1.98
2023-05-14T07:29:24.469Z,2.00
2023-05-14T07:34:22.039Z,2.42
2023-05-14T07:39:19.070Z,2.13
2023-05-14T07:44:19.568Z,2.15
2023-05-14T07:49:19.029Z,2.53
2023-05-14T07:54:18.307Z,2.28
2023-05-14T07:59:15.178Z,2.35
2023-05-14T08:04:15.961Z,2.33
2023-05-14T08:09:16.911Z,2.47
2023-05-14T08:14:27.293Z,2.28
2023-05-14T08:19:53.803Z,2.17
2023-05-14T08:24:52.715Z,2.30
2023-05-14T08:29:53.014Z,2.13
2023-05-14T08:34:50.137Z,2.83
2023-05-14T08:39:47.024Z,2.28
2023-05-14T08:44:48.672Z,3.00
2023-05-14T08:49:55.106Z,2.53
2023-05-14T08:54:58.891Z,2.20
2023-05-14T08:59:55.974Z,2.47
2023-05-14T09:04:56.164Z,3.80
2023-05-14T09:09:53.855Z,2.50
2023-05-14T09:14:53.294Z,2.10
2023-05-14T09:19:52.401Z,2.90
2023-05-14T09:25:03.223Z,2.50
2023-05-14T11:34:10.717Z,2.63
2023-05-14T11:39:07.807Z,2.10
2023-05-14T11:44:05.083Z,2.95
2023-05-14T11:49:04.422Z,2.35
2023-05-14T11:54:03.364Z,2.55
2023-05-14T11:59:00.221Z,2.33
2023-05-14T12:03:57.119Z,3.00
2023-05-14T12:08:56.394Z,2.60
2023-05-14T12:13:54.100Z,2.35
2023-05-14T12:18:51.088Z,2.30
2023-05-14T12:23:48.094Z,2.10
2023-05-14T12:28:47.825Z,1.92
2023-05-14T12:33:45.542Z,2.45
2023-05-14T12:38:43.825Z,2.20
2023-05-14T12:43:43.464Z,2.28
2023-05-14T12:48:40.263Z,2.13
2023-05-14T12:53:37.800Z,2.75
2023-05-14T12:58:34.656Z,2.30
2023-05-14T13:03:32.387Z,2.60
2023-05-14T13:08:29.267Z,2.85
2023-05-14T13:13:26.965Z,2.78
2023-05-14T13:18:25.308Z,2.22
2023-05-14T13:23:22.224Z,2.30
2023-05-14T13:28:19.460Z,2.10
2023-05-14T13:33:17.066Z,2.38
2023-05-14T13:38:13.935Z,2.30
2023-05-14T13:43:12.237Z,2.28
2023-05-14T13:48:11.524Z,2.00
2023-05-14T13:53:30.406Z,2.50
2023-05-14T13:58:27.814Z,2.25
2023-05-14T14:03:24.629Z,2.05
2023-05-14T14:08:24.109Z,2.30
2023-05-14T14:13:22.301Z,2.45
2023-05-14T14:18:22.095Z,2.60
2023-05-14T14:23:19.401Z,2.13
2023-05-14T14:28:16.972Z,2.20
2023-05-14T14:33:33.853Z,2.20
2023-05-14T14:44:02.823Z,2.20
2023-05-14T14:48:59.644Z,2.30
2023-05-14T14:54:05.787Z,2.50
2023-05-14T14:59:03.351Z,2.90
2023-05-14T15:04:03.604Z,3.03
2023-05-14T15:09:15.833Z,2.20
2023-05-14T15:14:13.450Z,2.30
2023-05-14T15:19:10.426Z,2.40
2023-05-14T15:24:13.652Z,1.80
2023-05-14T15:29:10.536Z,2.13
2023-05-14T15:34:08.857Z,2.42
2023-05-14T15:39:22.868Z,2.55
2023-05-14T15:44:24.210Z,2.75
2023-05-14T15:49:26.143Z,2.25
2023-05-14T15:54:23.246Z,2.83
2023-05-14T15:59:25.799Z,2.67
2023-05-14T16:04:29.853Z,2.33
2023-05-14T16:09:26.984Z,2.25
2023-05-14T16:14:24.431Z,2.28
2023-05-14T16:19:21.567Z,3.28
2023-05-14T16:24:19.371Z,2.78
2023-05-14T16:29:16.399Z,2.88
2023-05-14T16:34:20.030Z,2.58
2023-05-14T16:39:18.662Z,2.72
2023-05-14T16:44:16.316Z,2.35
2023-05-14T16:49:13.620Z,2.40
2023-05-14T16:54:22.643Z,2.42
2023-05-14T16:59:20.282Z,1.83
2023-05-14T17:04:24.719Z,2.33
2023-05-14T17:09:24.697Z,2.10
2023-05-14T17:14:49.009Z,3.65
2023-05-14T17:19:46.404Z,3.60
2023-05-14T17:24:50.605Z,2.15
2023-05-14T17:29:53.246Z,2.80
2023-05-14T17:35:19.871Z,2.33
2023-05-14T17:40:24.619Z,2.15
2023-05-14T17:45:22.619Z,2.70
2023-05-14T17:50:21.718Z,2.13
2023-05-14T17:55:19.016Z,2.53
2023-05-14T18:00:18.776Z,2.40
2023-05-14T18:05:23.774Z,2.42
2023-05-14T18:10:22.242Z,2.75
2023-05-14T18:15:26.702Z,2.40
2023-05-14T18:20:24.654Z,3.35
2023-05-14T18:25:21.821Z,3.40
2023-05-14T18:30:20.515Z,2.85
2023-05-14T18:35:17.815Z,2.60
2023-05-14T18:40:17.696Z,2.50
2023-05-14T18:45:18.510Z,2.63
2023-05-14T18:50:15.518Z,2.83
2023-05-14T18:55:12.317Z,3.03
2023-05-14T19:00:11.590Z,2.30
2023-05-14T19:05:09.040Z,2.10
2023-05-14T19:10:07.306Z,2.40
2023-05-14T19:15:06.327Z,2.28
2023-05-14T19:20:05.556Z,2.90
2023-05-14T19:25:05.180Z,2.85
2023-05-14T19:30:04.450Z,3.05
2023-05-14T19:35:02.510Z,2.58
2023-05-14T19:40:00.224Z,2.72
2023-05-14T19:44:57.084Z,2.83
2023-05-14T19:49:53.840Z,2.85
2023-05-14T19:54:50.732Z,2.97
2023-05-14T19:59:48.203Z,2.88
2023-05-14T20:04:45.600Z,3.00
2023-05-14T20:09:42.452Z,3.20
2023-05-14T20:14:40.431Z,2.60
2023-05-14T20:19:37.920Z,3.47
2023-05-14T20:24:34.724Z,3.15
2023-05-14T20:29:31.466Z,3.15
2023-05-14T20:34:28.249Z,3.08
2023-05-14T20:39:25.751Z,2.92
2023-05-14T20:44:22.444Z,3.35
2023-05-14T20:49:21.496Z,3.10
2023-05-14T20:54:18.264Z,2.50
2023-05-14T20:59:15.733Z,3.00
2023-05-14T21:04:12.799Z,2.90
2023-05-14T21:09:10.123Z,3.28
2023-05-14T21:14:06.843Z,3.60
2023-05-14T21:19:04.337Z,4.13
2023-05-14T21:24:01.190Z,3.30
2023-05-14T21:28:58.628Z,3.67
2023-05-14T21:33:55.440Z,3.72
2023-05-14T21:38:53.493Z,3.85
2023-05-14T21:43:50.166Z,4.18
2023-05-14T21:48:47.159Z,4.13
2023-05-14T21:53:44.069Z,4.20
2023-05-14T21:58:41.635Z,3.55
2023-05-14T22:03:38.605Z,4.80
2023-05-14T22:08:35.593Z,4.13
2023-05-14T22:13:34.361Z,3.95
2023-05-14T22:18:31.897Z,3.85
2023-05-14T22:23:28.718Z,4.00
2023-05-14T22:28:25.490Z,3.80
2023-05-14T22:33:22.210Z,4.00
2023-05-14T22:38:19.862Z,4.57
2023-05-14T22:43:16.721Z,4.55
2023-05-14T22:48:13.701Z,4.07
2023-05-14T22:53:10.441Z,4.15
2023-05-14T22:58:07.921Z,5.00
2023-05-14T23:03:04.802Z,3.60
2023-05-14T23:08:01.904Z,4.30
2023-05-14T23:12:58.644Z,4.70
2023-05-14T23:17:56.212Z,3.88
2023-05-14T23:22:53.454Z,4.10
2023-05-14T23:27:50.291Z,3.83
2023-05-14T23:32:47.307Z,4.15
2023-05-14T23:37:46.544Z,4.47
2023-05-14T23:42:44.195Z,4.07
2023-05-14T23:47:41.499Z,3.80
2023-05-14T23:52:38.306Z,4.05
2023-05-14T23:57:35.843Z,4.72
